createdAt,value
2019-05-17T00:00:22.240Z,9.53
2019-05-17T00:02:49.838Z,10.65
2019-05-17T00:05:17.891Z,9.10
2019-05-17T00:07:47.562Z,8.43
2019-05-17T00:10:17.249Z,8.88
2019-05-17T00:12:46.918Z,7.83
2019-05-17T00:15:16.724Z,8.75
2019-05-17T00:17:43.439Z,8.33
2019-05-17T00:20:11.007Z,8.13
2019-05-17T00:22:38.911Z,8.05
2019-05-17T00:25:07.318Z,7.92
2019-05-17T00:27:36.703Z,8.18
2019-05-17T00:30:06.711Z,7.08
2019-05-17T00:32:36.723Z,6.60
2019-05-17T00:35:03.624Z,7.75
2019-05-17T00:37:31.446Z,7.90
2019-05-17T00:39:58.963Z,7.55
2019-05-17T00:42:26.918Z,7.83
2019-05-17T00:44:56.433Z,8.23
2019-05-17T00:47:23.506Z,7.03
2019-05-17T00:49:51.323Z,7.22
2019-05-17T00:52:19.098Z,7.62
2019-05-17T00:54:46.936Z,7.25
2019-05-17T00:57:16.457Z,6.70
2019-05-17T00:59:44.061Z,7.70
2019-05-17T01:02:11.576Z,7.00
2019-05-17T01:04:39.141Z,7.33
2019-05-17T01:07:07.097Z,7.15
2019-05-17T01:09:36.495Z,6.37
2019-05-17T01:12:03.771Z,7.03
2019-05-17T01:14:31.387Z,6.00
2019-05-17T01:16:58.597Z,5.70
2019-05-17T01:19:27.076Z,5.50
2019-05-17T01:21:56.686Z,5.33
2019-05-17T01:24:23.444Z,4.25
2019-05-17T01:26:51.060Z,4.95
2019-05-17T01:29:18.621Z,4.97
2019-05-17T01:31:46.806Z,4.55
2019-05-17T01:34:16.679Z,4.58
2019-05-17T01:36:46.307Z,3.83
2019-05-17T01:39:17.837Z,4.00
2019-05-17T01:41:42.280Z,3.15
2019-05-17T01:44:10.051Z,3.50
2019-05-17T01:46:37.250Z,3.58
2019-05-17T01:49:06.739Z,3.70
2019-05-17T01:51:34.142Z,3.90
2019-05-17T01:54:01.716Z,3.10
2019-05-17T01:56:29.296Z,3.40
2019-05-17T01:58:57.538Z,3.35
2019-05-17T02:01:27.415Z,2.62
2019-05-17T02:03:57.380Z,3.08
2019-05-17T02:06:27.089Z,3.30
2019-05-17T02:08:56.766Z,3.17
2019-05-17T02:11:26.748Z,3.85
2019-05-17T02:13:56.127Z,2.95
2019-05-17T02:16:23.831Z,3.20
2019-05-17T02:18:51.649Z,3.33
2019-05-17T02:21:19.575Z,3.30
2019-05-17T02:23:47.088Z,3.10
2019-05-17T02:26:14.415Z,3.35
2019-05-17T02:28:41.879Z,3.30
2019-05-17T02:31:09.084Z,3.35
2019-05-17T02:33:36.719Z,3.75
2019-05-17T02:36:03.978Z,3.22
2019-05-17T02:38:33.355Z,3.27
2019-05-17T02:41:03.333Z,3.40
2019-05-17T02:43:33.447Z,3.65
2019-05-17T02:46:03.250Z,3.33
2019-05-17T02:48:29.383Z,3.33
2019-05-17T02:50:57.010Z,3.55
2019-05-17T02:53:24.528Z,3.55
2019-05-17T02:55:53.881Z,3.65
2019-05-17T02:58:23.356Z,3.77
2019-05-17T03:00:53.294Z,3.72
2019-05-17T03:03:23.469Z,3.37
2019-05-17T03:05:53.304Z,3.58
2019-05-17T03:08:23.155Z,3.08
2019-05-17T03:10:48.768Z,3.20
2019-05-17T03:13:18.072Z,2.90
2019-05-17T03:15:45.807Z,2.75
2019-05-17T03:18:13.712Z,2.70
2019-05-17T03:20:43.129Z,2.90
2019-05-17T03:23:12.662Z,2.60
2019-05-17T03:25:44.095Z,3.20
2019-05-17T03:28:13.175Z,3.30
2019-05-17T03:30:45.983Z,2.85
2019-05-17T03:33:15.312Z,3.55
2019-05-17T03:35:45.179Z,3.45
2019-05-17T03:38:13.888Z,3.72
2019-05-17T03:41:07.489Z,3.87
2019-05-17T03:43:13.548Z,4.00
2019-05-17T03:45:42.478Z,3.72
2019-05-17T03:48:09.241Z,3.80
2019-05-17T03:50:37.226Z,4.20
2019-05-17T03:53:04.688Z,3.80
2019-05-17T03:55:33.374Z,4.05
2019-05-17T03:58:03.049Z,3.95
2019-05-17T04:00:34.893Z,3.72
2019-05-17T04:03:02.924Z,4.50
2019-05-17T04:05:33.072Z,4.15
2019-05-17T04:08:03.033Z,3.77
2019-05-17T04:10:29.182Z,4.47
2019-05-17T04:12:57.090Z,4.20
2019-05-17T04:15:24.601Z,4.47
2019-05-17T04:17:53.845Z,4.22
2019-05-17T04:20:22.501Z,4.37
2019-05-17T04:22:52.831Z,3.60
2019-05-17T04:25:23.218Z,3.98
2019-05-17T04:27:49.711Z,4.08
2019-05-17T04:30:18.092Z,4.65
2019-05-17T04:32:46.203Z,4.22
2019-05-17T04:35:14.009Z,4.45
2019-05-17T04:37:44.481Z,4.00
2019-05-17T04:40:14.316Z,4.03
2019-05-17T04:42:43.933Z,4.78
2019-05-17T04:45:12.747Z,3.98
2019-05-17T04:47:43.732Z,4.28
2019-05-17T04:50:12.981Z,4.42
2019-05-17T04:52:42.503Z,5.22
2019-05-17T04:55:13.081Z,4.83
2019-05-17T04:57:38.907Z,4.83
2019-05-17T05:00:06.435Z,4.60
2019-05-17T05:02:33.725Z,4.62
2019-05-17T05:05:03.248Z,5.17
2019-05-17T05:07:33.629Z,4.95
2019-05-17T05:10:03.107Z,4.97
2019-05-17T05:12:33.316Z,4.60
2019-05-17T05:14:59.844Z,4.35
2019-05-17T05:17:27.745Z,4.80
2019-05-17T05:19:55.501Z,5.15
2019-05-17T05:22:22.620Z,6.53
2019-05-17T05:24:52.453Z,5.10
2019-05-17T05:27:22.266Z,5.40
2019-05-17T05:29:52.044Z,4.97
2019-05-17T05:32:22.014Z,4.72
2019-05-17T05:34:49.248Z,4.80
2019-05-17T05:37:20.078Z,5.35
2019-05-17T05:39:47.206Z,4.97
2019-05-17T05:42:14.716Z,4.75
2019-05-17T05:44:42.289Z,4.72
2019-05-17T05:47:11.613Z,4.65
2019-05-17T05:49:39.487Z,4.17
2019-05-17T05:52:06.662Z,4.47
2019-05-17T05:54:34.218Z,4.60
2019-05-17T05:57:02.446Z,4.50
2019-05-17T05:59:31.690Z,4.58
2019-05-17T06:02:01.626Z,4.90
2019-05-17T06:04:31.654Z,4.90
2019-05-17T06:06:58.526Z,4.87
2019-05-17T06:09:25.908Z,5.90
2019-05-17T06:11:53.292Z,5.70
2019-05-17T06:14:21.575Z,6.15
2019-05-17T06:16:48.975Z,5.97
2019-05-17T06:19:16.785Z,5.62
2019-05-17T06:21:44.334Z,5.30
2019-05-17T06:24:12.015Z,6.67
2019-05-17T06:26:42.134Z,6.83
2019-05-17T06:29:11.810Z,6.28
2019-05-17T06:31:39.010Z,5.47
2019-05-17T06:34:06.483Z,5.03
2019-05-17T06:36:34.355Z,4.65
2019-05-17T06:39:04.042Z,4.30
2019-05-17T06:41:32.362Z,4.75
2019-05-17T06:44:02.740Z,4.30
2019-05-17T06:46:32.314Z,4.42
2019-05-17T06:48:59.634Z,4.47
2019-05-17T06:51:27.103Z,4.53
2019-05-17T06:53:54.738Z,4.20
2019-05-17T06:56:23.049Z,4.67
2019-05-17T06:58:50.827Z,4.40
2019-05-17T07:01:19.711Z,3.85
2019-05-17T07:03:49.425Z,3.80
2019-05-17T07:06:21.358Z,4.22
2019-05-17T07:08:49.529Z,3.85
2019-05-17T07:11:17.247Z,3.60
2019-05-17T07:13:44.598Z,3.95
2019-05-17T07:16:12.031Z,3.80
2019-05-17T07:18:40.012Z,3.50
2019-05-17T07:21:09.796Z,4.33
2019-05-17T07:23:39.511Z,4.17
2019-05-17T07:26:09.079Z,4.10
2019-05-17T07:28:36.010Z,4.53
2019-05-17T07:31:03.239Z,4.67
2019-05-17T07:33:30.737Z,3.50
2019-05-17T07:35:59.564Z,3.70
2019-05-17T07:38:30.033Z,3.17
2019-05-17T07:40:59.586Z,3.27
2019-05-17T07:43:26.719Z,3.17
2019-05-17T07:45:54.196Z,2.83
2019-05-17T07:48:21.627Z,3.17
2019-05-17T07:50:50.466Z,3.83
2019-05-17T07:53:20.076Z,3.00
2019-05-17T07:55:47.143Z,3.47
2019-05-17T07:58:14.631Z,2.98
2019-05-17T08:00:42.342Z,2.87
2019-05-17T08:03:12.904Z,2.83
2019-05-17T08:05:40.289Z,2.77
2019-05-17T08:08:09.653Z,2.77
2019-05-17T08:10:40.518Z,2.67
2019-05-17T08:13:06.750Z,2.95
2019-05-17T08:15:34.094Z,2.95
2019-05-17T08:18:01.856Z,2.92
2019-05-17T08:20:29.992Z,3.00
2019-05-17T08:22:59.442Z,2.95
2019-05-17T08:25:26.566Z,2.62
2019-05-17T08:27:54.140Z,3.30
2019-05-17T08:30:21.829Z,3.10
2019-05-17T08:32:50.456Z,3.33
2019-05-17T08:35:19.824Z,3.17
2019-05-17T08:37:49.734Z,2.77
2019-05-17T08:40:16.472Z,2.92
2019-05-17T08:42:43.636Z,2.92
2019-05-17T08:45:11.713Z,3.20
2019-05-17T08:47:39.653Z,3.30
2019-05-17T08:50:10.934Z,2.85
2019-05-17T08:52:40.224Z,3.08
2019-05-17T08:55:09.696Z,3.10
2019-05-17T08:57:39.963Z,3.15
2019-05-17T09:00:10.146Z,3.27
2019-05-17T09:02:37.015Z,2.42
2019-05-17T09:05:04.392Z,2.52
2019-05-17T09:07:31.979Z,3.00
2019-05-17T09:10:01.530Z,3.00
2019-05-17T09:12:30.033Z,2.10
2019-05-17T09:14:57.439Z,2.20
2019-05-17T09:17:25.019Z,2.67
2019-05-17T09:19:54.462Z,2.15
2019-05-17T09:22:22.475Z,2.85
2019-05-17T09:24:50.122Z,2.98
2019-05-17T09:27:19.775Z,2.60
2019-05-17T09:29:49.549Z,2.40
2019-05-17T09:32:16.908Z,2.30
2019-05-17T09:34:44.078Z,2.70
2019-05-17T09:37:14.816Z,3.52
2019-05-17T09:39:40.739Z,2.45
2019-05-17T09:42:10.410Z,2.20
2019-05-17T09:44:40.248Z,2.47
2019-05-17T09:47:09.988Z,2.75
2019-05-17T09:49:36.705Z,3.52
2019-05-17T09:52:04.201Z,2.50
2019-05-17T09:54:42.389Z,2.77
2019-05-17T09:57:01.468Z,2.62
2019-05-17T09:59:29.828Z,3.20
2019-05-17T10:01:59.981Z,3.40
2019-05-17T10:04:27.023Z,3.27
2019-05-17T10:06:54.596Z,2.85
2019-05-17T10:09:22.139Z,3.27
2019-05-17T10:11:49.585Z,3.95
2019-05-17T10:14:25.792Z,4.10
2019-05-17T10:16:46.583Z,4.40
2019-05-17T10:19:14.166Z,4.58
2019-05-17T10:21:42.131Z,3.98
2019-05-17T10:24:10.008Z,4.40
2019-05-17T10:26:37.572Z,3.83
2019-05-17T10:29:05.439Z,5.95
2019-05-17T10:31:32.619Z,5.05
2019-05-17T10:34:01.038Z,4.80
2019-05-17T10:36:29.416Z,5.45
2019-05-17T10:38:59.204Z,5.12
2019-05-17T10:41:26.451Z,5.00
2019-05-17T10:43:54.324Z,5.15
2019-05-17T10:46:21.893Z,5.58
2019-05-17T10:48:50.093Z,6.10
2019-05-17T10:51:20.308Z,5.83
2019-05-17T10:53:47.985Z,6.10
2019-05-17T10:56:15.163Z,5.28
2019-05-17T10:58:42.671Z,6.67
2019-05-17T11:01:10.382Z,6.75
2019-05-17T11:03:39.773Z,6.75
2019-05-17T11:06:07.575Z,6.42
2019-05-17T11:08:34.823Z,7.05
2019-05-17T11:11:02.532Z,6.12
2019-05-17T11:13:30.410Z,6.47
2019-05-17T11:15:57.604Z,6.05
2019-05-17T11:18:25.066Z,5.92
2019-05-17T11:20:52.336Z,5.62
2019-05-17T11:23:19.738Z,7.47
2019-05-17T11:25:47.260Z,7.72
2019-05-17T11:28:14.758Z,6.90
2019-05-17T11:30:42.956Z,6.53
2019-05-17T11:33:10.171Z,6.62
2019-05-17T11:35:38.079Z,6.85
2019-05-17T11:38:07.474Z,7.00
2019-05-17T11:40:34.624Z,7.53
2019-05-17T11:43:01.888Z,7.45
2019-05-17T11:45:32.828Z,7.85
2019-05-17T11:48:01.259Z,7.45
2019-05-17T11:50:29.031Z,7.55
2019-05-17T11:52:57.234Z,7.42
2019-05-17T11:55:25.466Z,6.53
2019-05-17T11:57:53.018Z,6.78
2019-05-17T12:00:21.601Z,7.08
2019-05-17T12:02:49.172Z,7.17
2019-05-17T12:05:16.493Z,8.20
2019-05-17T12:07:44.303Z,7.50
2019-05-17T12:10:12.006Z,7.87
2019-05-17T12:12:40.155Z,7.12
2019-05-17T12:15:08.020Z,8.83
2019-05-17T12:17:35.361Z,7.08
2019-05-17T12:20:02.990Z,7.45
2019-05-17T12:22:30.456Z,7.62
2019-05-17T12:24:57.900Z,7.85
2019-05-17T12:27:25.414Z,7.90
2019-05-17T12:29:53.302Z,7.47
2019-05-17T12:32:21.132Z,6.47
2019-05-17T12:34:48.770Z,7.58
2019-05-17T12:37:16.287Z,7.03
2019-05-17T12:39:43.419Z,7.72
2019-05-17T12:42:11.426Z,7.37
2019-05-17T12:44:39.090Z,6.78
2019-05-17T12:47:06.625Z,6.37
2019-05-17T12:49:34.130Z,6.62
2019-05-17T12:52:02.004Z,6.67
2019-05-17T12:54:29.557Z,7.45
2019-05-17T12:56:57.127Z,7.20
2019-05-17T12:59:24.999Z,7.05
2019-05-17T13:01:52.200Z,6.37
2019-05-17T13:04:20.025Z,7.35
2019-05-17T13:06:47.766Z,7.05
2019-05-17T13:09:15.851Z,7.05
2019-05-17T13:11:43.459Z,6.83
2019-05-17T13:14:11.517Z,7.30
2019-05-17T13:16:39.061Z,7.55
2019-05-17T13:19:06.259Z,8.30
2019-05-17T13:21:34.502Z,8.43
2019-05-17T13:24:02.049Z,8.23
2019-05-17T13:26:29.519Z,7.47
2019-05-17T13:28:56.923Z,7.65
2019-05-17T13:31:25.075Z,7.58
2019-05-17T13:33:52.637Z,7.33
2019-05-17T13:36:19.935Z,7.25
2019-05-17T13:38:47.855Z,7.80
2019-05-17T13:41:15.432Z,7.37
2019-05-17T13:43:42.670Z,7.08
2019-05-17T13:46:10.574Z,7.17
2019-05-17T13:48:38.846Z,6.30
2019-05-17T13:51:06.464Z,7.60
2019-05-17T13:53:34.040Z,6.70
2019-05-17T13:56:01.769Z,6.75
2019-05-17T13:58:29.411Z,7.22
2019-05-17T14:00:57.639Z,6.50
2019-05-17T14:03:25.473Z,6.35
2019-05-17T14:05:53.127Z,6.95
2019-05-17T14:08:20.661Z,6.60
2019-05-17T14:10:47.945Z,7.25
2019-05-17T14:13:15.187Z,6.87
2019-05-17T14:15:43.151Z,7.12
2019-05-17T14:18:10.339Z,6.22
2019-05-17T14:20:37.825Z,6.75
2019-05-17T14:23:05.365Z,5.72
2019-05-17T14:25:32.840Z,5.75
2019-05-17T14:28:00.358Z,5.97
2019-05-17T14:30:27.952Z,6.12
2019-05-17T14:32:55.852Z,6.08
2019-05-17T14:35:23.064Z,5.90
2019-05-17T14:37:50.288Z,5.83
2019-05-17T14:40:17.604Z,5.78
2019-05-17T14:42:45.026Z,5.22
2019-05-17T14:45:12.776Z,6.10
2019-05-17T14:47:40.053Z,6.10
2019-05-17T14:50:08.194Z,5.72
2019-05-17T14:52:36.652Z,6.03
2019-05-17T14:55:05.342Z,5.37
2019-05-17T14:57:33.415Z,5.87
2019-05-17T15:00:01.124Z,5.22
2019-05-17T15:02:28.464Z,5.60
2019-05-17T15:04:56.629Z,4.90
2019-05-17T15:07:23.830Z,4.85
2019-05-17T15:09:51.778Z,5.35
2019-05-17T15:12:27.903Z,5.53
2019-05-17T15:14:49.494Z,5.25
2019-05-17T15:17:17.168Z,4.28
2019-05-17T15:19:44.846Z,4.60
2019-05-17T15:22:12.641Z,5.50
2019-05-17T15:24:40.101Z,5.78
2019-05-17T15:27:08.283Z,5.65
2019-05-17T15:29:36.461Z,5.10
2019-05-17T15:32:03.915Z,5.83
2019-05-17T15:34:31.374Z,5.97
2019-05-17T15:36:58.943Z,6.30
2019-05-17T15:39:26.787Z,5.47
2019-05-17T15:41:54.564Z,5.22
2019-05-17T15:44:22.595Z,5.10
2019-05-17T15:46:50.079Z,5.60
2019-05-17T15:49:17.583Z,4.75
2019-05-17T15:51:44.898Z,4.67
2019-05-17T15:54:12.370Z,5.12
2019-05-17T15:56:39.851Z,4.67
2019-05-17T15:59:07.700Z,5.08
2019-05-17T16:01:35.197Z,5.28
2019-05-17T16:04:02.400Z,4.58
2019-05-17T16:06:29.583Z,5.10
2019-05-17T16:08:57.735Z,4.75
2019-05-17T16:11:25.463Z,5.62
2019-05-17T16:13:53.003Z,5.45
2019-05-17T16:16:21.027Z,5.30
2019-05-17T16:18:48.542Z,5.35
2019-05-17T16:21:17.209Z,5.03
2019-05-17T16:23:45.440Z,4.75
2019-05-17T16:26:13.961Z,4.85
2019-05-17T16:28:41.447Z,5.30
2019-05-17T16:31:09.462Z,4.75
2019-05-17T16:33:37.306Z,4.58
2019-05-17T16:36:05.128Z,5.35
2019-05-17T16:38:33.027Z,4.72
2019-05-17T16:41:00.603Z,4.65
2019-05-17T16:43:28.095Z,5.33
2019-05-17T16:45:55.614Z,4.97
2019-05-17T16:48:23.434Z,5.58
2019-05-17T16:50:51.044Z,5.65
2019-05-17T16:53:18.555Z,5.22
2019-05-17T16:55:46.717Z,5.67
2019-05-17T16:58:14.098Z,5.33
2019-05-17T17:00:41.984Z,5.03
2019-05-17T17:03:09.615Z,6.10
2019-05-17T17:05:37.366Z,4.92
2019-05-17T17:08:05.262Z,5.60
2019-05-17T17:10:32.872Z,5.25
2019-05-17T17:13:00.185Z,5.50
2019-05-17T17:15:28.086Z,5.92
2019-05-17T17:17:55.683Z,5.35
2019-05-17T17:20:23.416Z,5.55
2019-05-17T17:22:50.701Z,5.75
2019-05-17T17:25:17.991Z,5.12
2019-05-17T17:27:45.904Z,5.05
2019-05-17T17:30:15.932Z,5.92
2019-05-17T17:32:43.208Z,5.08
2019-05-17T17:35:12.779Z,5.58
2019-05-17T17:37:39.962Z,5.22
2019-05-17T17:40:07.802Z,5.25
2019-05-17T17:42:35.783Z,5.10
2019-05-17T17:45:03.687Z,4.70
2019-05-17T17:47:30.915Z,4.72
2019-05-17T17:49:58.899Z,5.05
2019-05-17T17:52:27.085Z,4.83
2019-05-17T17:54:54.953Z,5.47
2019-05-17T17:57:22.414Z,4.40
2019-05-17T17:59:50.574Z,5.87
2019-05-17T18:02:17.746Z,5.05
2019-05-17T18:04:45.614Z,5.20
2019-05-17T18:07:12.834Z,5.28
2019-05-17T18:09:40.313Z,4.47
2019-05-17T18:12:07.844Z,4.22
2019-05-17T18:14:35.071Z,3.87
2019-05-17T18:17:02.458Z,4.10
2019-05-17T18:19:30.119Z,4.40
2019-05-17T18:21:58.262Z,4.75
2019-05-17T18:24:25.459Z,4.47
2019-05-17T18:26:52.675Z,4.60
2019-05-17T18:29:20.529Z,4.67
2019-05-17T18:31:47.726Z,4.53
2019-05-17T18:34:15.267Z,5.10
2019-05-17T18:36:42.951Z,4.37
2019-05-17T18:39:10.689Z,4.50
2019-05-17T18:41:38.568Z,3.85
2019-05-17T18:44:06.087Z,4.70
2019-05-17T18:46:33.395Z,4.87
2019-05-17T18:49:01.772Z,4.92
2019-05-17T18:51:28.979Z,5.40
2019-05-17T18:53:57.561Z,4.85
2019-05-17T18:56:24.908Z,4.50
2019-05-17T18:58:52.846Z,4.87
2019-05-17T19:01:20.078Z,4.03
2019-05-17T19:03:47.543Z,4.20
2019-05-17T19:06:14.784Z,4.67
2019-05-17T19:08:42.283Z,4.17
2019-05-17T19:11:09.837Z,4.60
2019-05-17T19:13:36.983Z,4.12
2019-05-17T19:16:04.619Z,3.80
2019-05-17T19:18:32.247Z,3.80
2019-05-17T19:20:59.441Z,3.80
2019-05-17T19:23:27.069Z,3.67
2019-05-17T19:25:54.578Z,3.83
2019-05-17T19:28:22.209Z,3.75
2019-05-17T19:30:50.370Z,4.00
2019-05-17T19:33:18.191Z,3.47
2019-05-17T19:35:45.431Z,4.05
2019-05-17T19:38:12.922Z,3.60
2019-05-17T19:40:40.441Z,3.85
2019-05-17T19:43:07.937Z,4.20
2019-05-17T19:45:35.545Z,4.10
2019-05-17T19:48:03.227Z,3.98
2019-05-17T19:50:30.683Z,4.40
2019-05-17T19:52:57.937Z,4.58
2019-05-17T19:55:25.507Z,3.70
2019-05-17T19:57:52.706Z,3.95
2019-05-17T20:00:20.694Z,4.28
2019-05-17T20:02:48.125Z,4.00
2019-05-17T20:05:15.779Z,3.70
2019-05-17T20:07:43.434Z,3.77
2019-05-17T20:10:13.023Z,4.10
2019-05-17T20:12:40.869Z,4.03
2019-05-17T20:15:17.359Z,4.58
2019-05-17T20:17:38.858Z,4.72
2019-05-17T20:20:07.095Z,4.35
2019-05-17T20:22:34.539Z,4.25
2019-05-17T20:25:02.102Z,5.30
2019-05-17T20:27:29.441Z,4.85
2019-05-17T20:29:56.708Z,4.95
2019-05-17T20:32:23.970Z,4.65
2019-05-17T20:34:51.207Z,4.85
2019-05-17T20:37:18.473Z,5.22
2019-05-17T20:39:46.136Z,4.53
2019-05-17T20:42:14.339Z,4.33
2019-05-17T20:44:41.892Z,4.20
2019-05-17T20:47:09.227Z,5.03
2019-05-17T20:49:36.934Z,5.10
2019-05-17T20:52:04.479Z,5.40
2019-05-17T20:54:31.733Z,4.80
2019-05-17T20:56:58.962Z,5.17
2019-05-17T20:59:26.542Z,4.83
2019-05-17T21:01:54.340Z,4.75
2019-05-17T21:04:21.755Z,5.37
2019-05-17T21:06:49.687Z,5.60
2019-05-17T21:09:17.197Z,6.15
2019-05-17T21:11:44.788Z,5.90
2019-05-17T21:14:11.975Z,5.47
2019-05-17T21:16:39.459Z,6.00
2019-05-17T21:19:06.946Z,5.75
2019-05-17T21:21:34.170Z,6.60
2019-05-17T21:24:01.861Z,6.53
2019-05-17T21:26:29.469Z,6.55
2019-05-17T21:28:57.044Z,6.65
2019-05-17T21:31:24.598Z,6.55
2019-05-17T21:33:52.131Z,6.00
2019-05-17T21:36:19.839Z,5.97
2019-05-17T21:38:47.378Z,5.85
2019-05-17T21:41:14.966Z,6.37
2019-05-17T21:43:42.837Z,5.45
2019-05-17T21:46:11.021Z,6.95
2019-05-17T21:48:38.556Z,6.42
2019-05-17T21:51:05.766Z,5.85
2019-05-17T21:53:33.789Z,5.35
2019-05-17T21:56:01.008Z,6.10
2019-05-17T21:58:28.218Z,6.22
2019-05-17T22:01:23.085Z,5.58
2019-05-17T22:03:50.673Z,6.05
2019-05-17T22:06:18.277Z,6.55
2019-05-17T22:08:46.123Z,6.60
2019-05-17T22:11:13.492Z,6.00
2019-05-17T22:13:41.022Z,6.60
2019-05-17T22:16:18.968Z,6.67
2019-05-17T22:18:37.742Z,6.20
2019-05-17T22:21:05.489Z,5.83
2019-05-17T22:23:32.862Z,5.75
2019-05-17T22:26:00.371Z,6.10
2019-05-17T22:28:27.942Z,5.90
2019-05-17T22:30:55.530Z,6.17
2019-05-17T22:33:22.717Z,6.03
2019-05-17T22:35:49.963Z,6.00
2019-05-17T22:38:17.898Z,6.03
2019-05-17T22:40:45.615Z,5.40
2019-05-17T22:43:12.730Z,5.58
2019-05-17T22:45:41.147Z,5.80
2019-05-17T22:48:09.287Z,6.10
2019-05-17T22:50:37.015Z,6.00
2019-05-17T22:53:04.345Z,5.78
2019-05-17T22:55:32.190Z,5.95
2019-05-17T22:57:59.964Z,5.70
2019-05-17T23:00:27.939Z,5.65
2019-05-17T23:02:55.175Z,6.12
2019-05-17T23:05:26.322Z,5.40
2019-05-17T23:07:52.671Z,5.97
2019-05-17T23:10:20.242Z,6.47
2019-05-17T23:12:48.108Z,5.85
2019-05-17T23:15:15.330Z,5.78
2019-05-17T23:17:42.895Z,6.12
2019-05-17T23:20:12.063Z,5.72
2019-05-17T23:22:41.373Z,5.60
2019-05-17T23:25:09.729Z,5.90
2019-05-17T23:27:36.959Z,5.50
2019-05-17T23:30:04.874Z,5.92
2019-05-17T23:32:32.395Z,6.47
2019-05-17T23:35:00.912Z,5.33
2019-05-17T23:37:28.543Z,6.05
2019-05-17T23:39:55.791Z,6.03
2019-05-17T23:42:23.084Z,5.72
2019-05-17T23:44:51.186Z,5.78
2019-05-17T23:47:18.624Z,6.05
2019-05-17T23:49:46.501Z,5.72
2019-05-17T23:52:14.052Z,6.53
2019-05-17T23:54:41.723Z,5.90
2019-05-17T23:57:09.896Z,6.47
2019-05-17T23:59:37.671Z,6.12
